sensor_id;sensor_type;location;lat;lon;timestamp;P1;durP1;ratioP1;P2;durP2;ratioP2
4430;SDS011;2228;48.140;11.488;2023-04-15T00:01:32;11.18;;;3.50;;
4430;SDS011;2228;48.140;11.488;2023-04-15T00:04:01;10.07;;;4.07;;
4430;SDS011;2228;48.140;11.488;2023-04-15T00:06:30;9.15;;;3.78;;
4430;SDS011;2228;48.140;11.488;2023-04-15T00:08:57;10.95;;;4.00;;
4430;SDS011;2228;48.140;11.488;2023-04-15T00:11:23;11.40;;;4.20;;
4430;SDS011;2228;48.140;11.488;2023-04-15T00:13:50;6.57;;;3.80;;
4430;SDS011;2228;48.140;11.488;2023-04-15T00:16:17;9.48;;;4.20;;
4430;SDS011;2228;48.140;11.488;2023-04-15T00:18:44;9.15;;;3.80;;
4430;SDS011;2228;48.140;11.488;2023-04-15T00:21:11;11.10;;;4.10;;
4430;SDS011;2228;48.140;11.488;2023-04-15T00:23:39;10.40;;;3.97;;
4430;SDS011;2228;48.140;11.488;2023-04-15T00:26:06;8.38;;;4.45;;
4430;SDS011;2228;48.140;11.488;2023-04-15T00:28:33;13.00;;;4.03;;
4430;SDS011;2228;48.140;11.488;2023-04-15T00:31:01;10.85;;;3.70;;
4430;SDS011;2228;48.140;11.488;2023-04-15T00:33:29;10.05;;;3.95;;
4430;SDS011;2228;48.140;11.488;2023-04-15T00:35:55;12.30;;;4.00;;
4430;SDS011;2228;48.140;11.488;2023-04-15T00:38:23;8.60;;;3.70;;
4430;SDS011;2228;48.140;11.488;2023-04-15T00:40:51;7.68;;;3.40;;
4430;SDS011;2228;48.140;11.488;2023-04-15T00:43:19;9.73;;;4.18;;
4430;SDS011;2228;48.140;11.488;2023-04-15T00:45:46;8.27;;;4.20;;
4430;SDS011;2228;48.140;11.488;2023-04-15T00:48:12;10.23;;;4.05;;
4430;SDS011;2228;48.140;11.488;2023-04-15T00:50:40;12.77;;;4.43;;
4430;SDS011;2228;48.140;11.488;2023-04-15T00:53:07;11.82;;;4.70;;
4430;SDS011;2228;48.140;11.488;2023-04-15T00:55:34;10.07;;;4.80;;
4430;SDS011;2228;48.140;11.488;2023-04-15T00:58:04;9.80;;;4.47;;
4430;SDS011;2228;48.140;11.488;2023-04-15T01:00:31;8.60;;;3.92;;
4430;SDS011;2228;48.140;11.488;2023-04-15T01:02:58;6.40;;;3.88;;
4430;SDS011;2228;48.140;11.488;2023-04-15T01:05:26;8.25;;;4.28;;
4430;SDS011;2228;48.140;11.488;2023-04-15T01:07:54;10.05;;;4.40;;
4430;SDS011;2228;48.140;11.488;2023-04-15T01:10:21;8.55;;;4.15;;
4430;SDS011;2228;48.140;11.488;2023-04-15T01:12:48;8.30;;;4.13;;
4430;SDS011;2228;48.140;11.488;2023-04-15T01:15:16;9.65;;;4.47;;
4430;SDS011;2228;48.140;11.488;2023-04-15T01:17:44;5.97;;;4.10;;
4430;SDS011;2228;48.140;11.488;2023-04-15T01:20:12;11.27;;;4.88;;
4430;SDS011;2228;48.140;11.488;2023-04-15T01:22:40;11.97;;;4.43;;
4430;SDS011;2228;48.140;11.488;2023-04-15T01:25:08;13.20;;;4.73;;
4430;SDS011;2228;48.140;11.488;2023-04-15T01:27:39;7.47;;;4.70;;
4430;SDS011;2228;48.140;11.488;2023-04-15T01:30:07;8.60;;;4.50;;
4430;SDS011;2228;48.140;11.488;2023-04-15T01:32:35;6.77;;;3.70;;
4430;SDS011;2228;48.140;11.488;2023-04-15T01:35:02;7.63;;;4.00;;
4430;SDS011;2228;48.140;11.488;2023-04-15T01:37:29;11.40;;;4.03;;
4430;SDS011;2228;48.140;11.488;2023-04-15T01:39:57;8.10;;;3.83;;
4430;SDS011;2228;48.140;11.488;2023-04-15T01:42:24;6.90;;;4.15;;
4430;SDS011;2228;48.140;11.488;2023-04-15T01:44:53;7.70;;;5.10;;
4430;SDS011;2228;48.140;11.488;2023-04-15T01:47:20;9.13;;;4.50;;
4430;SDS011;2228;48.140;11.488;2023-04-15T01:49:47;9.93;;;4.50;;
4430;SDS011;2228;48.140;11.488;2023-04-15T01:52:14;11.77;;;4.97;;
4430;SDS011;2228;48.140;11.488;2023-04-15T01:54:41;7.78;;;4.30;;
4430;SDS011;2228;48.140;11.488;2023-04-15T01:57:08;9.85;;;4.50;;
4430;SDS011;2228;48.140;11.488;2023-04-15T01:59:34;10.90;;;4.20;;
4430;SDS011;2228;48.140;11.488;2023-04-15T02:02:03;7.85;;;4.97;;
4430;SDS011;2228;48.140;11.488;2023-04-15T02:04:30;15.60;;;5.15;;
4430;SDS011;2228;48.140;11.488;2023-04-15T02:06:58;7.07;;;4.10;;
4430;SDS011;2228;48.140;11.488;2023-04-15T02:09:26;7.63;;;4.45;;
4430;SDS011;2228;48.140;11.488;2023-04-15T02:11:53;9.82;;;4.78;;
4430;SDS011;2228;48.140;11.488;2023-04-15T02:14:20;7.38;;;4.80;;
4430;SDS011;2228;48.140;11.488;2023-04-15T02:16:47;11.80;;;4.53;;
4430;SDS011;2228;48.140;11.488;2023-04-15T02:19:15;9.98;;;4.53;;
4430;SDS011;2228;48.140;11.488;2023-04-15T02:21:42;8.27;;;4.10;;
4430;SDS011;2228;48.140;11.488;2023-04-15T02:24:09;10.75;;;4.20;;
4430;SDS011;2228;48.140;11.488;2023-04-15T02:26:36;8.30;;;4.43;;
4430;SDS011;2228;48.140;11.488;2023-04-15T02:29:03;9.00;;;4.28;;
4430;SDS011;2228;48.140;11.488;2023-04-15T02:31:30;6.40;;;4.05;;
4430;SDS011;2228;48.140;11.488;2023-04-15T02:34:01;9.95;;;3.95;;
4430;SDS011;2228;48.140;11.488;2023-04-15T02:36:30;9.30;;;3.90;;
4430;SDS011;2228;48.140;11.488;2023-04-15T02:38:58;7.17;;;4.00;;
4430;SDS011;2228;48.140;11.488;2023-04-15T02:41:26;8.30;;;4.20;;
4430;SDS011;2228;48.140;11.488;2023-04-15T02:43:54;10.43;;;4.07;;
4430;SDS011;2228;48.140;11.488;2023-04-15T02:46:21;8.35;;;3.70;;
4430;SDS011;2228;48.140;11.488;2023-04-15T02:48:48;8.75;;;3.30;;
4430;SDS011;2228;48.140;11.488;2023-04-15T02:51:15;9.30;;;4.20;;
4430;SDS011;2228;48.140;11.488;2023-04-15T02:53:45;9.23;;;3.70;;
4430;SDS011;2228;48.140;11.488;2023-04-15T02:56:12;6.47;;;3.92;;
4430;SDS011;2228;48.140;11.488;2023-04-15T02:58:41;8.43;;;4.03;;
4430;SDS011;2228;48.140;11.488;2023-04-15T03:01:09;9.15;;;3.78;;
4430;SDS011;2228;48.140;11.488;2023-04-15T03:03:35;9.02;;;4.15;;
4430;SDS011;2228;48.140;11.488;2023-04-15T03:06:02;9.68;;;3.85;;
4430;SDS011;2228;48.140;11.488;2023-04-15T03:08:29;7.45;;;4.05;;
4430;SDS011;2228;48.140;11.488;2023-04-15T03:10:58;12.40;;;4.07;;
4430;SDS011;2228;48.140;11.488;2023-04-15T03:13:26;11.65;;;4.70;;
4430;SDS011;2228;48.140;11.488;2023-04-15T03:15:53;9.93;;;3.60;;
4430;SDS011;2228;48.140;11.488;2023-04-15T03:18:20;7.97;;;3.22;;
4430;SDS011;2228;48.140;11.488;2023-04-15T03:20:47;5.55;;;2.90;;
4430;SDS011;2228;48.140;11.488;2023-04-15T03:23:14;7.18;;;3.25;;
4430;SDS011;2228;48.140;11.488;2023-04-15T03:25:41;8.70;;;3.20;;
4430;SDS011;2228;48.140;11.488;2023-04-15T03:28:11;9.93;;;3.57;;
4430;SDS011;2228;48.140;11.488;2023-04-15T03:30:38;7.38;;;3.55;;
4430;SDS011;2228;48.140;11.488;2023-04-15T03:33:05;6.47;;;3.17;;
4430;SDS011;2228;48.140;11.488;2023-04-15T03:35:32;7.65;;;3.40;;
4430;SDS011;2228;48.140;11.488;2023-04-15T03:37:59;6.93;;;3.78;;
4430;SDS011;2228;48.140;11.488;2023-04-15T03:40:26;8.37;;;3.27;;
4430;SDS011;2228;48.140;11.488;2023-04-15T03:42:53;8.70;;;2.90;;
4430;SDS011;2228;48.140;11.488;2023-04-15T03:45:22;7.77;;;3.30;;
4430;SDS011;2228;48.140;11.488;2023-04-15T03:47:48;7.85;;;3.15;;
4430;SDS011;2228;48.140;11.488;2023-04-15T03:50:15;6.65;;;2.88;;
4430;SDS011;2228;48.140;11.488;2023-04-15T03:52:42;7.20;;;3.47;;
4430;SDS011;2228;48.140;11.488;2023-04-15T03:55:09;8.45;;;3.50;;
4430;SDS011;2228;48.140;11.488;2023-04-15T03:57:37;5.75;;;2.80;;
4430;SDS011;2228;48.140;11.488;2023-04-15T04:00:04;6.78;;;2.90;;
4430;SDS011;2228;48.140;11.488;2023-04-15T04:02:33;7.82;;;3.70;;
4430;SDS011;2228;48.140;11.488;2023-04-15T04:05:00;5.57;;;3.17;;
4430;SDS011;2228;48.140;11.488;2023-04-15T04:07:27;4.50;;;2.67;;
4430;SDS011;2228;48.140;11.488;2023-04-15T04:09:55;10.07;;;3.45;;
4430;SDS011;2228;48.140;11.488;2023-04-15T04:12:22;7.73;;;3.30;;
4430;SDS011;2228;48.140;11.488;2023-04-15T04:14:49;8.98;;;2.70;;
4430;SDS011;2228;48.140;11.488;2023-04-15T04:17:16;6.00;;;2.50;;
4430;SDS011;2228;48.140;11.488;2023-04-15T04:19:44;5.82;;;2.70;;
4430;SDS011;2228;48.140;11.488;2023-04-15T04:22:11;5.60;;;2.40;;
4430;SDS011;2228;48.140;11.488;2023-04-15T04:24:38;5.60;;;2.67;;
4430;SDS011;2228;48.140;11.488;2023-04-15T04:27:05;7.68;;;2.78;;
4430;SDS011;2228;48.140;11.488;2023-04-15T04:29:32;5.60;;;2.72;;
4430;SDS011;2228;48.140;11.488;2023-04-15T04:31:58;9.73;;;3.00;;
4430;SDS011;2228;48.140;11.488;2023-04-15T04:34:26;7.53;;;2.88;;
4430;SDS011;2228;48.140;11.488;2023-04-15T04:36:54;6.70;;;2.85;;
4430;SDS011;2228;48.140;11.488;2023-04-15T04:39:21;4.85;;;2.55;;
4430;SDS011;2228;48.140;11.488;2023-04-15T04:41:53;7.05;;;2.50;;
4430;SDS011;2228;48.140;11.488;2023-04-15T04:44:20;4.47;;;2.60;;
4430;SDS011;2228;48.140;11.488;2023-04-15T04:46:47;6.28;;;2.80;;
4430;SDS011;2228;48.140;11.488;2023-04-15T04:49:14;6.40;;;2.60;;
4430;SDS011;2228;48.140;11.488;2023-04-15T04:51:41;6.07;;;2.63;;
4430;SDS011;2228;48.140;11.488;2023-04-15T04:54:09;6.75;;;2.65;;
4430;SDS011;2228;48.140;11.488;2023-04-15T04:56:36;7.70;;;2.63;;
4430;SDS011;2228;48.140;11.488;2023-04-15T04:59:03;4.15;;;2.33;;
4430;SDS011;2228;48.140;11.488;2023-04-15T05:01:31;5.90;;;2.00;;
4430;SDS011;2228;48.140;11.488;2023-04-15T05:03:58;5.15;;;1.95;;
4430;SDS011;2228;48.140;11.488;2023-04-15T05:06:26;9.90;;;2.67;;
4430;SDS011;2228;48.140;11.488;2023-04-15T05:08:54;5.28;;;2.20;;
4430;SDS011;2228;48.140;11.488;2023-04-15T05:11:23;6.60;;;2.20;;
4430;SDS011;2228;48.140;11.488;2023-04-15T05:13:50;4.38;;;1.98;;
4430;SDS011;2228;48.140;11.488;2023-04-15T05:16:17;6.18;;;2.20;;
4430;SDS011;2228;48.140;11.488;2023-04-15T05:18:45;4.60;;;2.00;;
4430;SDS011;2228;48.140;11.488;2023-04-15T05:21:11;7.32;;;1.80;;
4430;SDS011;2228;48.140;11.488;2023-04-15T05:23:38;5.45;;;2.00;;
4430;SDS011;2228;48.140;11.488;2023-04-15T05:26:05;3.73;;;2.20;;
4430;SDS011;2228;48.140;11.488;2023-04-15T05:28:34;7.07;;;2.33;;
4430;SDS011;2228;48.140;11.488;2023-04-15T05:31:01;4.28;;;1.70;;
4430;SDS011;2228;48.140;11.488;2023-04-15T05:33:28;7.00;;;2.10;;
4430;SDS011;2228;48.140;11.488;2023-04-15T05:35:55;9.10;;;2.50;;
4430;SDS011;2228;48.140;11.488;2023-04-15T05:38:22;5.05;;;2.28;;
4430;SDS011;2228;48.140;11.488;2023-04-15T05:40:49;4.65;;;1.80;;
4430;SDS011;2228;48.140;11.488;2023-04-15T05:43:16;4.18;;;1.90;;
4430;SDS011;2228;48.140;11.488;2023-04-15T05:45:44;5.10;;;2.00;;
4430;SDS011;2228;48.140;11.488;2023-04-15T05:48:11;6.00;;;2.20;;
4430;SDS011;2228;48.140;11.488;2023-04-15T05:50:39;6.85;;;1.73;;
4430;SDS011;2228;48.140;11.488;2023-04-15T05:53:06;5.50;;;1.95;;
4430;SDS011;2228;48.140;11.488;2023-04-15T05:55:33;4.68;;;1.80;;
4430;SDS011;2228;48.140;11.488;2023-04-15T05:58:00;3.27;;;1.50;;
4430;SDS011;2228;48.140;11.488;2023-04-15T06:00:27;3.38;;;1.23;;
4430;SDS011;2228;48.140;11.488;2023-04-15T06:02:56;5.18;;;1.70;;
4430;SDS011;2228;48.140;11.488;2023-04-15T06:05:24;4.03;;;2.00;;
4430;SDS011;2228;48.140;11.488;2023-04-15T06:07:51;7.10;;;2.38;;
4430;SDS011;2228;48.140;11.488;2023-04-15T06:10:18;5.60;;;1.80;;
4430;SDS011;2228;48.140;11.488;2023-04-15T06:12:45;5.50;;;1.90;;
4430;SDS011;2228;48.140;11.488;2023-04-15T06:15:12;4.63;;;2.27;;
4430;SDS011;2228;48.140;11.488;2023-04-15T06:17:40;7.70;;;3.10;;
4430;SDS011;2228;48.140;11.488;2023-04-15T06:20:09;12.00;;;5.15;;
4430;SDS011;2228;48.140;11.488;2023-04-15T06:22:37;7.82;;;3.45;;
4430;SDS011;2228;48.140;11.488;2023-04-15T06:25:05;5.10;;;2.25;;
4430;SDS011;2228;48.140;11.488;2023-04-15T06:27:33;5.30;;;1.70;;
4430;SDS011;2228;48.140;11.488;2023-04-15T06:30:01;5.70;;;1.40;;
4430;SDS011;2228;48.140;11.488;2023-04-15T06:32:28;4.57;;;2.28;;
4430;SDS011;2228;48.140;11.488;2023-04-15T06:34:56;6.38;;;1.80;;
4430;SDS011;2228;48.140;11.488;2023-04-15T06:37:25;7.55;;;1.50;;
4430;SDS011;2228;48.140;11.488;2023-04-15T06:39:52;4.70;;;1.50;;
4430;SDS011;2228;48.140;11.488;2023-04-15T06:42:19;7.28;;;1.50;;
4430;SDS011;2228;48.140;11.488;2023-04-15T06:44:47;5.40;;;1.80;;
4430;SDS011;2228;48.140;11.488;2023-04-15T06:47:15;8.05;;;1.65;;
4430;SDS011;2228;48.140;11.488;2023-04-15T06:49:44;4.03;;;1.60;;
4430;SDS011;2228;48.140;11.488;2023-04-15T06:52:11;4.30;;;1.30;;
4430;SDS011;2228;48.140;11.488;2023-04-15T06:54:41;5.03;;;1.73;;
4430;SDS011;2228;48.140;11.488;2023-04-15T06:57:08;3.67;;;1.55;;
4430;SDS011;2228;48.140;11.488;2023-04-15T06:59:35;7.20;;;1.60;;
4430;SDS011;2228;48.140;11.488;2023-04-15T07:02:02;4.07;;;1.13;;
4430;SDS011;2228;48.140;11.488;2023-04-15T07:04:29;5.32;;;1.50;;
4430;SDS011;2228;48.140;11.488;2023-04-15T07:06:56;5.00;;;1.80;;
4430;SDS011;2228;48.140;11.488;2023-04-15T07:09:24;6.80;;;1.67;;
4430;SDS011;2228;48.140;11.488;2023-04-15T07:11:53;2.58;;;1.00;;
4430;SDS011;2228;48.140;11.488;2023-04-15T07:14:20;2.58;;;1.40;;
4430;SDS011;2228;48.140;11.488;2023-04-15T07:16:46;2.95;;;1.60;;
4430;SDS011;2228;48.140;11.488;2023-04-15T07:19:13;3.78;;;1.20;;
4430;SDS011;2228;48.140;11.488;2023-04-15T07:21:40;6.18;;;1.33;;
4430;SDS011;2228;48.140;11.488;2023-04-15T07:24:07;4.30;;;1.50;;
4430;SDS011;2228;48.140;11.488;2023-04-15T07:26:34;7.07;;;2.10;;
4430;SDS011;2228;48.140;11.488;2023-04-15T07:29:02;3.85;;;1.40;;
4430;SDS011;2228;48.140;11.488;2023-04-15T07:31:29;4.65;;;1.33;;
4430;SDS011;2228;48.140;11.488;2023-04-15T07:33:56;4.20;;;1.70;;
4430;SDS011;2228;48.140;11.488;2023-04-15T07:36:23;4.60;;;1.50;;
4430;SDS011;2228;48.140;11.488;2023-04-15T07:38:50;3.95;;;1.40;;
4430;SDS011;2228;48.140;11.488;2023-04-15T07:41:17;2.15;;;1.55;;
4430;SDS011;2228;48.140;11.488;2023-04-15T07:43:45;2.60;;;1.70;;
4430;SDS011;2228;48.140;11.488;2023-04-15T07:46:13;3.80;;;1.20;;
4430;SDS011;2228;48.140;11.488;2023-04-15T07:48:40;3.73;;;1.23;;
4430;SDS011;2228;48.140;11.488;2023-04-15T07:51:07;3.05;;;1.60;;
4430;SDS011;2228;48.140;11.488;2023-04-15T07:53:35;2.90;;;1.27;;
4430;SDS011;2228;48.140;11.488;2023-04-15T07:56:02;5.55;;;1.50;;
4430;SDS011;2228;48.140;11.488;2023-04-15T07:58:29;4.38;;;1.63;;
4430;SDS011;2228;48.140;11.488;2023-04-15T08:00:56;3.45;;;1.30;;
4430;SDS011;2228;48.140;11.488;2023-04-15T08:03:24;3.47;;;1.30;;
4430;SDS011;2228;48.140;11.488;2023-04-15T08:05:51;5.30;;;1.30;;
4430;SDS011;2228;48.140;11.488;2023-04-15T08:08:18;3.92;;;2.15;;
4430;SDS011;2228;48.140;11.488;2023-04-15T08:10:45;3.72;;;1.45;;
4430;SDS011;2228;48.140;11.488;2023-04-15T08:13:12;6.97;;;1.40;;
4430;SDS011;2228;48.140;11.488;2023-04-15T08:15:39;5.50;;;1.60;;
4430;SDS011;2228;48.140;11.488;2023-04-15T08:18:06;3.13;;;1.50;;
4430;SDS011;2228;48.140;11.488;2023-04-15T08:20:34;5.37;;;1.47;;
4430;SDS011;2228;48.140;11.488;2023-04-15T08:23:01;6.68;;;1.60;;
4430;SDS011;2228;48.140;11.488;2023-04-15T08:25:33;3.03;;;1.30;;
4430;SDS011;2228;48.140;11.488;2023-04-15T08:28:02;2.90;;;1.15;;
4430;SDS011;2228;48.140;11.488;2023-04-15T08:30:31;3.10;;;1.70;;
4430;SDS011;2228;48.140;11.488;2023-04-15T08:32:58;4.30;;;1.50;;
4430;SDS011;2228;48.140;11.488;2023-04-15T08:35:26;6.07;;;1.88;;
4430;SDS011;2228;48.140;11.488;2023-04-15T08:37:54;4.05;;;1.30;;
4430;SDS011;2228;48.140;11.488;2023-04-15T08:40:21;6.25;;;1.50;;
4430;SDS011;2228;48.140;11.488;2023-04-15T08:42:52;5.27;;;1.43;;
4430;SDS011;2228;48.140;11.488;2023-04-15T08:45:22;5.70;;;2.40;;
4430;SDS011;2228;48.140;11.488;2023-04-15T08:47:49;5.13;;;1.90;;
4430;SDS011;2228;48.140;11.488;2023-04-15T08:50:21;6.43;;;2.20;;
4430;SDS011;2228;48.140;11.488;2023-04-15T08:52:52;8.88;;;1.60;;
4430;SDS011;2228;48.140;11.488;2023-04-15T08:55:21;6.47;;;1.90;;
4430;SDS011;2228;48.140;11.488;2023-04-15T08:57:49;3.65;;;1.60;;
4430;SDS011;2228;48.140;11.488;2023-04-15T09:00:17;4.85;;;1.80;;
4430;SDS011;2228;48.140;11.488;2023-04-15T09:02:44;4.85;;;1.90;;
4430;SDS011;2228;48.140;11.488;2023-04-15T09:05:11;8.43;;;2.00;;
4430;SDS011;2228;48.140;11.488;2023-04-15T09:07:38;3.45;;;2.13;;
4430;SDS011;2228;48.140;11.488;2023-04-15T09:10:08;4.97;;;1.80;;
4430;SDS011;2228;48.140;11.488;2023-04-15T09:12:36;5.60;;;2.00;;
4430;SDS011;2228;48.140;11.488;2023-04-15T09:15:04;3.25;;;2.10;;
4430;SDS011;2228;48.140;11.488;2023-04-15T09:17:32;5.10;;;2.17;;
4430;SDS011;2228;48.140;11.488;2023-04-15T09:20:06;5.93;;;2.20;;
4430;SDS011;2228;48.140;11.488;2023-04-15T09:22:35;4.88;;;2.20;;
4430;SDS011;2228;48.140;11.488;2023-04-15T09:25:14;4.90;;;2.40;;
4430;SDS011;2228;48.140;11.488;2023-04-15T09:27:52;3.90;;;2.30;;
4430;SDS011;2228;48.140;11.488;2023-04-15T09:30:25;3.85;;;2.30;;
4430;SDS011;2228;48.140;11.488;2023-04-15T09:32:55;4.80;;;2.70;;
4430;SDS011;2228;48.140;11.488;2023-04-15T09:35:26;6.22;;;2.30;;
4430;SDS011;2228;48.140;11.488;2023-04-15T09:38:00;4.20;;;2.30;;
4430;SDS011;2228;48.140;11.488;2023-04-15T09:40:33;4.10;;;2.30;;
4430;SDS011;2228;48.140;11.488;2023-04-15T09:43:01;3.05;;;1.80;;
4430;SDS011;2228;48.140;11.488;2023-04-15T09:45:29;5.00;;;2.50;;
4430;SDS011;2228;48.140;11.488;2023-04-15T09:47:57;6.82;;;2.90;;
4430;SDS011;2228;48.140;11.488;2023-04-15T09:50:27;4.63;;;2.50;;
4430;SDS011;2228;48.140;11.488;2023-04-15T09:52:54;5.43;;;2.55;;
4430;SDS011;2228;48.140;11.488;2023-04-15T09:55:21;6.60;;;2.60;;
4430;SDS011;2228;48.140;11.488;2023-04-15T09:57:50;5.68;;;2.47;;
4430;SDS011;2228;48.140;11.488;2023-04-15T10:00:17;4.82;;;2.83;;
4430;SDS011;2228;48.140;11.488;2023-04-15T10:02:44;3.85;;;2.72;;
4430;SDS011;2228;48.140;11.488;2023-04-15T10:05:13;6.50;;;2.60;;
4430;SDS011;2228;48.140;11.488;2023-04-15T10:07:41;4.38;;;2.30;;
4430;SDS011;2228;48.140;11.488;2023-04-15T10:10:10;8.73;;;2.60;;
4430;SDS011;2228;48.140;11.488;2023-04-15T10:12:38;4.88;;;2.55;;
4430;SDS011;2228;48.140;11.488;2023-04-15T10:15:10;5.78;;;2.80;;
4430;SDS011;2228;48.140;11.488;2023-04-15T10:17:40;6.25;;;3.15;;
4430;SDS011;2228;48.140;11.488;2023-04-15T10:20:09;5.72;;;2.90;;
4430;SDS011;2228;48.140;11.488;2023-04-15T10:22:38;4.10;;;2.90;;
4430;SDS011;2228;48.140;11.488;2023-04-15T10:25:07;5.03;;;3.30;;
4430;SDS011;2228;48.140;11.488;2023-04-15T10:27:35;4.22;;;3.17;;
4430;SDS011;2228;48.140;11.488;2023-04-15T10:30:05;4.40;;;3.10;;
4430;SDS011;2228;48.140;11.488;2023-04-15T10:32:34;4.65;;;2.70;;
4430;SDS011;2228;48.140;11.488;2023-04-15T10:35:02;7.57;;;3.40;;
4430;SDS011;2228;48.140;11.488;2023-04-15T10:37:34;5.68;;;2.72;;
4430;SDS011;2228;48.140;11.488;2023-04-15T10:42:56;5.53;;;3.60;;
4430;SDS011;2228;48.140;11.488;2023-04-15T10:45:24;4.10;;;3.63;;
4430;SDS011;2228;48.140;11.488;2023-04-15T10:47:55;5.47;;;3.20;;
4430;SDS011;2228;48.140;11.488;2023-04-15T10:50:24;7.10;;;3.10;;
4430;SDS011;2228;48.140;11.488;2023-04-15T10:52:54;8.23;;;3.10;;
4430;SDS011;2228;48.140;11.488;2023-04-15T10:55:22;5.60;;;2.97;;
4430;SDS011;2228;48.140;11.488;2023-04-15T10:57:51;8.30;;;3.65;;
4430;SDS011;2228;48.140;11.488;2023-04-15T11:00:21;6.83;;;3.80;;
4430;SDS011;2228;48.140;11.488;2023-04-15T11:02:52;5.00;;;3.20;;
4430;SDS011;2228;48.140;11.488;2023-04-15T11:05:22;9.25;;;3.50;;
4430;SDS011;2228;48.140;11.488;2023-04-15T11:08:16;6.38;;;3.17;;
4430;SDS011;2228;48.140;11.488;2023-04-15T11:10:52;6.85;;;3.83;;
4430;SDS011;2228;48.140;11.488;2023-04-15T11:13:20;5.90;;;3.60;;
4430;SDS011;2228;48.140;11.488;2023-04-15T11:15:57;7.72;;;3.97;;
4430;SDS011;2228;48.140;11.488;2023-04-15T11:18:27;7.45;;;3.90;;
4430;SDS011;2228;48.140;11.488;2023-04-15T11:21:00;6.30;;;3.90;;
4430;SDS011;2228;48.140;11.488;2023-04-15T11:23:30;7.05;;;3.50;;
4430;SDS011;2228;48.140;11.488;2023-04-15T11:26:03;6.40;;;3.63;;
4430;SDS011;2228;48.140;11.488;2023-04-15T11:28:33;5.15;;;3.35;;
4430;SDS011;2228;48.140;11.488;2023-04-15T11:31:04;6.13;;;3.60;;
4430;SDS011;2228;48.140;11.488;2023-04-15T11:33:34;5.93;;;3.17;;
4430;SDS011;2228;48.140;11.488;2023-04-15T11:36:03;7.18;;;4.07;;
4430;SDS011;2228;48.140;11.488;2023-04-15T11:38:30;6.93;;;3.55;;
4430;SDS011;2228;48.140;11.488;2023-04-15T11:40:57;6.05;;;3.60;;
4430;SDS011;2228;48.140;11.488;2023-04-15T11:43:24;7.10;;;3.80;;
4430;SDS011;2228;48.140;11.488;2023-04-15T11:45:52;6.40;;;3.70;;
4430;SDS011;2228;48.140;11.488;2023-04-15T11:48:21;8.43;;;3.60;;
4430;SDS011;2228;48.140;11.488;2023-04-15T11:50:52;6.47;;;3.75;;
4430;SDS011;2228;48.140;11.488;2023-04-15T11:53:22;7.20;;;3.78;;
4430;SDS011;2228;48.140;11.488;2023-04-15T11:55:51;6.88;;;3.72;;
4430;SDS011;2228;48.140;11.488;2023-04-15T11:58:19;9.48;;;3.85;;
4430;SDS011;2228;48.140;11.488;2023-04-15T12:00:48;7.50;;;3.65;;
4430;SDS011;2228;48.140;11.488;2023-04-15T12:03:18;6.00;;;3.90;;
4430;SDS011;2228;48.140;11.488;2023-04-15T12:06:04;6.35;;;3.42;;
4430;SDS011;2228;48.140;11.488;2023-04-15T12:11:31;5.90;;;3.80;;
4430;SDS011;2228;48.140;11.488;2023-04-15T12:14:03;5.37;;;3.90;;
4430;SDS011;2228;48.140;11.488;2023-04-15T12:16:32;8.10;;;4.10;;
4430;SDS011;2228;48.140;11.488;2023-04-15T12:19:00;9.05;;;4.25;;
4430;SDS011;2228;48.140;11.488;2023-04-15T12:21:32;4.78;;;3.80;;
4430;SDS011;2228;48.140;11.488;2023-04-15T12:24:03;7.47;;;3.85;;
4430;SDS011;2228;48.140;11.488;2023-04-15T12:26:33;8.32;;;3.97;;
4430;SDS011;2228;48.140;11.488;2023-04-15T12:29:02;5.75;;;3.70;;
4430;SDS011;2228;48.140;11.488;2023-04-15T12:31:31;10.43;;;4.50;;
4430;SDS011;2228;48.140;11.488;2023-04-15T12:33:58;8.10;;;4.10;;
4430;SDS011;2228;48.140;11.488;2023-04-15T12:36:26;6.53;;;3.60;;
4430;SDS011;2228;48.140;11.488;2023-04-15T12:38:54;6.50;;;3.70;;
4430;SDS011;2228;48.140;11.488;2023-04-15T12:41:22;7.60;;;3.50;;
4430;SDS011;2228;48.140;11.488;2023-04-15T12:43:49;8.20;;;3.60;;
4430;SDS011;2228;48.140;11.488;2023-04-15T12:46:16;7.15;;;2.80;;
4430;SDS011;2228;48.140;11.488;2023-04-15T12:48:44;4.43;;;3.00;;
4430;SDS011;2228;48.140;11.488;2023-04-15T12:51:11;3.70;;;2.80;;
4430;SDS011;2228;48.140;11.488;2023-04-15T12:53:38;4.97;;;2.60;;
4430;SDS011;2228;48.140;11.488;2023-04-15T12:56:05;4.60;;;2.20;;
4430;SDS011;2228;48.140;11.488;2023-04-15T12:58:34;5.50;;;2.70;;
4430;SDS011;2228;48.140;11.488;2023-04-15T13:01:01;6.90;;;2.72;;
4430;SDS011;2228;48.140;11.488;2023-04-15T13:03:29;5.60;;;2.58;;
4430;SDS011;2228;48.140;11.488;2023-04-15T13:05:56;3.95;;;2.10;;
4430;SDS011;2228;48.140;11.488;2023-04-15T13:08:23;4.00;;;2.20;;
4430;SDS011;2228;48.140;11.488;2023-04-15T13:10:50;3.67;;;2.28;;
4430;SDS011;2228;48.140;11.488;2023-04-15T13:13:17;4.50;;;2.25;;
4430;SDS011;2228;48.140;11.488;2023-04-15T13:15:45;5.05;;;2.28;;
4430;SDS011;2228;48.140;11.488;2023-04-15T13:18:12;2.90;;;2.15;;
4430;SDS011;2228;48.140;11.488;2023-04-15T13:20:39;3.50;;;2.40;;
4430;SDS011;2228;48.140;11.488;2023-04-15T13:23:06;4.45;;;2.30;;
4430;SDS011;2228;48.140;11.488;2023-04-15T13:25:34;3.42;;;2.40;;
4430;SDS011;2228;48.140;11.488;2023-04-15T13:28:01;4.53;;;2.92;;
4430;SDS011;2228;48.140;11.488;2023-04-15T13:30:28;5.20;;;2.78;;
4430;SDS011;2228;48.140;11.488;2023-04-15T13:32:56;6.45;;;3.10;;
4430;SDS011;2228;48.140;11.488;2023-04-15T13:35:23;7.82;;;3.10;;
4430;SDS011;2228;48.140;11.488;2023-04-15T13:37:50;7.38;;;3.00;;
4430;SDS011;2228;48.140;11.488;2023-04-15T13:40:19;6.70;;;3.30;;
4430;SDS011;2228;48.140;11.488;2023-04-15T13:42:46;7.43;;;3.60;;
4430;SDS011;2228;48.140;11.488;2023-04-15T13:45:13;5.18;;;3.35;;
4430;SDS011;2228;48.140;11.488;2023-04-15T13:47:40;5.13;;;3.20;;
4430;SDS011;2228;48.140;11.488;2023-04-15T13:50:09;7.10;;;3.27;;
4430;SDS011;2228;48.140;11.488;2023-04-15T13:52:36;5.90;;;3.90;;
4430;SDS011;2228;48.140;11.488;2023-04-15T13:55:03;6.70;;;3.70;;
4430;SDS011;2228;48.140;11.488;2023-04-15T13:57:30;10.98;;;3.60;;
4430;SDS011;2228;48.140;11.488;2023-04-15T13:59:58;5.00;;;3.60;;
4430;SDS011;2228;48.140;11.488;2023-04-15T14:02:25;6.03;;;3.50;;
4430;SDS011;2228;48.140;11.488;2023-04-15T14:04:52;5.75;;;3.33;;
4430;SDS011;2228;48.140;11.488;2023-04-15T14:07:20;7.30;;;3.45;;
4430;SDS011;2228;48.140;11.488;2023-04-15T14:09:48;6.57;;;3.65;;
4430;SDS011;2228;48.140;11.488;2023-04-15T14:12:15;8.98;;;3.58;;
4430;SDS011;2228;48.140;11.488;2023-04-15T14:14:41;5.97;;;3.45;;
4430;SDS011;2228;48.140;11.488;2023-04-15T14:17:09;6.83;;;3.00;;
4430;SDS011;2228;48.140;11.488;2023-04-15T14:19:36;6.45;;;3.30;;
4430;SDS011;2228;48.140;11.488;2023-04-15T14:22:03;4.10;;;3.10;;
4430;SDS011;2228;48.140;11.488;2023-04-15T14:24:32;5.50;;;2.65;;
4430;SDS011;2228;48.140;11.488;2023-04-15T14:26:58;4.10;;;2.67;;
4430;SDS011;2228;48.140;11.488;2023-04-15T14:29:26;5.20;;;2.92;;
4430;SDS011;2228;48.140;11.488;2023-04-15T14:31:53;6.43;;;3.17;;
4430;SDS011;2228;48.140;11.488;2023-04-15T14:34:21;4.10;;;2.88;;
4430;SDS011;2228;48.140;11.488;2023-04-15T14:36:49;5.32;;;2.53;;
4430;SDS011;2228;48.140;11.488;2023-04-15T14:39:16;5.20;;;2.70;;
4430;SDS011;2228;48.140;11.488;2023-04-15T14:41:45;2.65;;;2.10;;
4430;SDS011;2228;48.140;11.488;2023-04-15T14:44:12;7.32;;;2.60;;
4430;SDS011;2228;48.140;11.488;2023-04-15T14:46:39;5.28;;;2.90;;
4430;SDS011;2228;48.140;11.488;2023-04-15T14:49:06;5.18;;;3.10;;
4430;SDS011;2228;48.140;11.488;2023-04-15T14:51:33;5.10;;;2.47;;
4430;SDS011;2228;48.140;11.488;2023-04-15T14:54:00;4.17;;;2.70;;
4430;SDS011;2228;48.140;11.488;2023-04-15T14:56:27;3.83;;;2.40;;
4430;SDS011;2228;48.140;11.488;2023-04-15T14:58:55;5.50;;;2.40;;
4430;SDS011;2228;48.140;11.488;2023-04-15T15:01:22;4.83;;;2.80;;
4430;SDS011;2228;48.140;11.488;2023-04-15T15:03:49;7.25;;;3.28;;
4430;SDS011;2228;48.140;11.488;2023-04-15T15:06:16;5.80;;;3.08;;
4430;SDS011;2228;48.140;11.488;2023-04-15T15:08:45;6.68;;;3.88;;
4430;SDS011;2228;48.140;11.488;2023-04-15T15:11:12;9.00;;;3.90;;